Time;durP1;ratioP1;P1;durP2;ratioP2;P2;SDS_P1;SDS_P2;PMS_P1;PMS_P2;Temp;Humidity;BMP_temperature;BMP_pressure;BME280_temperature;BME280_humidity;BME280_pressure;Samples;Min_cycle;Max_cycle;Signal;HPM_P1;HPM_P2
2021/12/08 00:01:26;;;;;;;17.58;10.77;;;;;;;-0.84;78.87;99306.41;4909213;29;20130;-74
2021/12/08 00:03:53;;;;;;;16.20;9.77;;;;;;;-0.93;78.23;99311.94;4878342;29;20144;-76
2021/12/08 00:06:17;;;;;;;17.40;10.35;;;;;;;-0.94;78.28;99318.06;4871815;29;20043;-77
2021/12/08 00:14:10;;;;;;;15.90;8.80;;;;;;;-0.91;78.40;99307.50;4904659;29;20387;-70
2021/12/08 00:16:35;;;;;;;15.75;8.75;;;;;;;-0.91;77.80;99311.88;4893784;29;20043;-77
2021/12/08 00:19:00;;;;;;;18.55;9.85;;;;;;;-0.93;77.31;99311.06;4858770;29;20052;-76
2021/12/08 00:21:27;;;;;;;18.67;9.98;;;;;;;-0.96;76.76;99317.25;4892660;29;20053;-74
2021/12/08 00:23:51;;;;;;;14.52;8.65;;;;;;;-0.90;77.35;99313.56;4910533;29;20062;-76
2021/12/08 00:26:16;;;;;;;16.13;9.82;;;;;;;-0.88;78.15;99323.09;4874712;29;20039;-76
2021/12/08 00:28:41;;;;;;;14.77;8.77;;;;;;;-0.89;78.19;99308.28;4892486;29;20039;-75
2021/12/08 00:31:06;;;;;;;16.25;9.63;;;;;;;-0.89;78.22;99308.28;4875844;29;20047;-75
2021/12/08 00:33:32;;;;;;;16.15;9.75;;;;;;;-0.87;78.17;99305.63;4874734;29;20102;-73
2021/12/08 00:36:00;;;;;;;17.50;10.18;;;;;;;-0.83;78.10;99315.09;4907789;28;20493;-73
2021/12/08 00:38:25;;;;;;;15.07;9.27;;;;;;;-0.84;78.13;99306.41;4890458;29;20066;-76
2021/12/08 00:40:51;;;;;;;17.42;9.88;;;;;;;-0.83;78.23;99304.66;4908545;29;20463;-71
2021/12/08 00:43:18;;;;;;;18.10;10.85;;;;;;;-0.85;78.27;99320.38;4906506;29;20035;-75
2021/12/08 00:45:43;;;;;;;16.92;9.52;;;;;;;-0.85;78.06;99330.00;4891921;29;20035;-71
2021/12/08 00:48:08;;;;;;;18.30;10.70;;;;;;;-0.85;77.97;99336.09;4891106;29;20043;-74
2021/12/08 00:50:35;;;;;;;14.25;8.82;;;;;;;-0.84;78.07;99336.94;4891940;29;20058;-72
2021/12/08 00:53:00;;;;;;;15.52;9.70;;;;;;;-0.84;78.02;99342.19;4889529;29;20048;-73
2021/12/08 00:55:27;;;;;;;15.73;8.80;;;;;;;-0.84;78.22;99345.66;4907205;29;20046;-72
2021/12/08 00:57:52;;;;;;;17.63;9.82;;;;;;;-0.84;78.24;99336.94;4905454;29;20078;-70
2021/12/08 01:00:26;;;;;;;17.75;10.27;;;;;;;-0.84;77.88;99353.50;4891454;29;20031;-72
2021/12/08 01:02:51;;;;;;;16.10;9.63;;;;;;;-0.83;78.04;99356.97;4890832;29;20414;-72
2021/12/08 01:05:20;;;;;;;15.07;8.52;;;;;;;-0.86;77.97;99362.31;4892908;29;20394;-70
2021/12/08 01:07:45;;;;;;;15.73;9.60;;;;;;;-0.87;78.09;99365.81;4891924;29;20047;-73
2021/12/08 01:10:14;;;;;;;15.32;9.23;;;;;;;-0.90;77.70;99358.91;4910894;29;20098;-76
2021/12/08 01:12:39;;;;;;;15.10;8.75;;;;;;;-0.94;77.38;99346.84;4888676;29;20043;-69
2021/12/08 01:15:05;;;;;;;13.13;8.60;;;;;;;-0.95;77.17;99357.34;4908689;29;20047;-73
2021/12/08 01:17:30;;;;;;;21.45;10.07;;;;;;;-0.94;77.41;99365.16;4876664;29;20039;-74
2021/12/08 01:19:55;;;;;;;15.75;9.32;;;;;;;-0.97;77.64;99367.00;4888926;29;20043;-71
2021/12/08 01:22:19;;;;;;;19.05;9.77;;;;;;;-0.98;78.13;99363.50;4891410;29;20137;-71
2021/12/08 01:24:44;;;;;;;15.73;8.73;;;;;;;-1.06;77.90;99368.13;4890443;29;20487;-76
2021/12/08 01:27:09;;;;;;;17.75;9.35;;;;;;;-1.13;77.68;99367.41;4890174;29;20043;-74
2021/12/08 01:29:34;;;;;;;19.92;9.25;;;;;;;-1.20;78.11;99380.72;4909096;29;20450;-74
2021/12/08 01:31:58;;;;;;;13.35;9.05;;;;;;;-1.27;77.83;99372.22;4907314;29;20056;-70
2021/12/08 01:34:23;;;;;;;15.23;9.35;;;;;;;-1.32;77.70;99381.94;4907017;29;20047;-73
2021/12/08 01:36:48;;;;;;;15.18;8.95;;;;;;;-1.31;77.50;99372.31;4909250;29;20045;-76
2021/12/08 01:39:13;;;;;;;19.15;10.80;;;;;;;-1.33;77.99;99363.66;4907319;29;20049;-78
2021/12/08 01:41:39;;;;;;;14.95;9.55;;;;;;;-1.39;77.54;99356.00;4893051;29;20031;-79
2021/12/08 01:46:47;;;;;;;15.85;8.30;;;;;;;-1.47;77.21;99361.47;4892392;29;20043;-77
2021/12/08 01:49:13;;;;;;;15.05;8.68;;;;;;;-1.47;77.23;99367.50;4893394;29;20046;-75
2021/12/08 01:51:38;;;;;;;15.38;9.15;;;;;;;-1.47;76.98;99364.06;4911907;29;20045;-76
2021/12/08 01:54:05;;;;;;;14.98;8.75;;;;;;;-1.47;77.24;99377.16;4913463;29;20040;-76
2021/12/08 01:56:31;;;;;;;15.73;8.77;;;;;;;-1.45;76.93;99372.69;4894680;29;20043;-75
2021/12/08 01:58:56;;;;;;;17.77;10.18;;;;;;;-1.44;77.02;99376.19;4910511;29;20055;-78
2021/12/08 02:01:25;;;;;;;20.27;9.43;;;;;;;-1.43;76.90;99386.59;4911799;29;20040;-75
2021/12/08 02:03:51;;;;;;;16.88;9.38;;;;;;;-1.46;76.67;99394.50;4911033;29;20042;-75
2021/12/08 02:06:19;;;;;;;15.68;9.65;;;;;;;-1.46;77.43;99384.91;4912257;29;20438;-75
2021/12/08 02:08:45;;;;;;;16.13;10.57;;;;;;;-1.49;77.03;99389.38;4878629;29;20173;-68
2021/12/08 02:11:10;;;;;;;17.50;10.35;;;;;;;-1.50;77.23;99393.75;4876055;29;20047;-75
2021/12/08 02:13:39;;;;;;;18.33;10.43;;;;;;;-1.49;77.00;99405.06;4892983;29;20458;-70
2021/12/08 02:16:08;;;;;;;15.95;9.77;;;;;;;-1.48;77.10;99402.44;4886119;29;20530;-70
2021/12/08 02:18:32;;;;;;;16.92;10.20;;;;;;;-1.51;76.92;99402.50;4885773;29;20477;-72
2021/12/08 02:21:00;;;;;;;17.88;10.45;;;;;;;-1.53;76.97;99403.44;4902959;29;20489;-72
2021/12/08 02:23:24;;;;;;;20.08;11.48;;;;;;;-1.55;77.33;99407.84;4902215;29;20035;-71
2021/12/08 02:25:49;;;;;;;19.00;11.70;;;;;;;-1.64;76.76;99408.09;4904396;29;20054;-72
2021/12/08 02:28:14;;;;;;;14.23;9.57;;;;;;;-1.66;76.94;99402.03;4891463;29;20046;-72
2021/12/08 02:30:46;;;;;;;16.40;10.25;;;;;;;-1.68;76.86;99407.28;4889756;29;20075;-74
2021/12/08 02:49:47;;;;;;;14.68;9.07;;;;;;;-1.84;76.61;99419.91;4845724;29;20838;-74
2021/12/08 02:52:14;;;;;;;19.42;10.52;;;;;;;-1.80;76.81;99417.19;4848367;29;20632;-79
2021/12/08 02:54:45;;;;;;;17.30;10.77;;;;;;;-1.80;76.66;99427.66;4847448;29;20093;-78
2021/12/08 02:57:11;;;;;;;16.88;10.18;;;;;;;-1.87;76.62;99425.19;4862553;29;20055;-73
2021/12/08 02:59:37;;;;;;;17.23;10.32;;;;;;;-1.89;76.53;99431.34;4861651;29;20065;-72
2021/12/08 03:02:02;;;;;;;16.92;10.10;;;;;;;-1.88;76.89;99436.53;4846730;29;20051;-69
2021/12/08 03:04:27;;;;;;;16.67;9.95;;;;;;;-1.95;76.74;99424.53;4861285;29;20107;-69
2021/12/08 03:06:52;;;;;;;15.32;9.55;;;;;;;-1.96;76.63;99432.41;4861283;29;20056;-75
2021/12/08 03:09:17;;;;;;;18.45;10.82;;;;;;;-1.96;76.49;99435.03;4860753;29;20052;-74
2021/12/08 03:11:42;;;;;;;19.00;10.88;;;;;;;-1.98;76.90;99455.94;4860649;29;20060;-74
2021/12/08 03:14:10;;;;;;;17.25;10.52;;;;;;;-1.97;76.35;99451.59;4861794;29;20102;-76
2021/12/08 03:16:40;;;;;;;19.30;10.68;;;;;;;-1.99;76.19;99453.38;4862045;29;20051;-74
2021/12/08 03:19:05;;;;;;;15.95;9.68;;;;;;;-1.96;76.47;99438.50;4892633;29;20864;-73
2021/12/08 03:21:32;;;;;;;15.45;9.95;;;;;;;-1.96;76.55;99446.34;4884272;29;20562;-72
2021/12/08 03:24:44;;;;;;;21.33;10.98;;;;;;;-1.95;76.30;99449.81;4884375;29;20414;-74
2021/12/08 03:27:06;;;;;;;15.60;9.65;;;;;;;-1.95;76.33;99445.44;4891989;29;20055;-72
2021/12/08 03:32:10;;;;;;;19.65;10.60;;;;;;;-2.02;76.54;99454.31;4900637;29;20139;-68
2021/12/08 03:34:38;;;;;;;18.80;10.38;;;;;;;-2.06;76.73;99460.50;4900815;29;20047;-67
2021/12/08 03:37:06;;;;;;;19.55;10.35;;;;;;;-2.08;76.37;99470.13;4900758;29;20047;-68
2021/12/08 03:39:31;;;;;;;17.50;11.30;;;;;;;-2.09;76.29;99455.34;4901086;29;20487;-67
2021/12/08 03:41:56;;;;;;;18.25;10.07;;;;;;;-2.10;75.93;99469.31;4867672;29;20043;-69
2021/12/08 03:44:21;;;;;;;17.33;10.18;;;;;;;-2.12;76.02;99475.44;4900584;29;20047;-67
2021/12/08 03:46:46;;;;;;;17.92;10.00;;;;;;;-2.16;75.54;99469.44;4900552;29;20055;-70
2021/12/08 03:49:17;;;;;;;19.67;10.18;;;;;;;-2.16;75.53;99461.63;4900479;29;20130;-71
2021/12/08 03:51:42;;;;;;;16.75;9.82;;;;;;;-2.18;75.75;99471.22;4900282;29;20131;-73
2021/12/08 03:54:09;;;;;;;19.23;10.73;;;;;;;-2.21;75.53;99472.16;4900325;29;20146;-69
2021/12/08 03:56:34;;;;;;;19.77;10.77;;;;;;;-2.20;75.78;99488.69;4900368;29;20110;-70
2021/12/08 03:58:59;;;;;;;18.23;10.55;;;;;;;-2.24;75.82;99485.28;4883462;29;20047;-69
2021/12/08 04:01:24;;;;;;;14.70;9.18;;;;;;;-2.25;76.08;99495.75;4883448;29;20118;-70
2021/12/08 11:20:52;;;;;;;16.70;8.23;;;;;;;-4.76;73.55;99792.22;5294076;23;20059;-71
2021/12/08 11:26:30;;;;;;;14.95;7.75;;;;;;;-4.78;73.24;99787.91;4900611;29;20118;-71
2021/12/08 11:29:04;;;;;;;14.95;7.28;;;;;;;-4.86;73.91;99789.72;4900913;29;20399;-69
2021/12/08 11:31:40;;;;;;;17.02;8.95;;;;;;;-4.86;73.66;99800.97;4883149;29;20044;-69
2021/12/08 11:34:14;;;;;;;16.85;7.80;;;;;;;-4.87;73.79;99794.06;4900480;29;20110;-70
2021/12/08 11:36:40;;;;;;;20.52;7.97;;;;;;;-4.85;73.52;99797.47;4900634;29;20126;-69
2021/12/08 11:39:14;;;;;;;17.85;9.80;;;;;;;-4.89;73.67;99806.19;4900691;29;20134;-70
2021/12/08 11:41:45;;;;;;;12.50;7.78;;;;;;;-4.87;73.67;99798.38;4900463;29;20126;-73
2021/12/08 11:44:16;;;;;;;16.75;8.10;;;;;;;-4.89;73.70;99802.72;4900307;29;20111;-71
2021/12/08 11:46:46;;;;;;;13.48;7.68;;;;;;;-4.87;73.24;99799.25;4883293;29;20071;-71
2021/12/08 11:49:11;;;;;;;21.35;9.32;;;;;;;-4.90;73.54;99803.59;4900198;29;20047;-69
2021/12/08 11:51:42;;;;;;;14.80;8.55;;;;;;;-4.88;73.57;99800.13;4900397;29;20098;-68
2021/12/08 11:54:07;;;;;;;16.25;8.00;;;;;;;-4.89;73.56;99794.94;4867222;29;20051;-69
2021/12/08 11:56:39;;;;;;;15.50;9.18;;;;;;;-4.87;73.12;99795.78;4901050;29;20046;-69
2021/12/08 11:59:07;;;;;;;19.13;8.85;;;;;;;-4.90;73.82;99794.06;4902110;29;20052;-73
2021/12/08 12:01:32;;;;;;;15.48;7.95;;;;;;;-4.97;73.66;99801.94;4901917;29;20071;-72
2021/12/08 12:03:57;;;;;;;13.30;7.53;;;;;;;-5.00;73.28;99810.59;4887281;29;20051;-70
2021/12/08 12:06:27;;;;;;;18.70;7.43;;;;;;;-5.03;73.42;99800.22;4886638;29;20048;-75
2021/12/08 12:08:52;;;;;;;17.02;8.27;;;;;;;-5.06;73.31;99808.03;4903036;29;20055;-73
2021/12/08 12:11:17;;;;;;;12.68;7.47;;;;;;;-5.08;73.35;99803.72;4900124;29;20058;-73
2021/12/08 12:13:42;;;;;;;15.95;8.13;;;;;;;-5.09;73.35;99805.47;4900134;29;20047;-73
2021/12/08 12:16:07;;;;;;;13.10;7.55;;;;;;;-5.08;73.14;99803.72;4900630;29;20890;-73
2021/12/08 12:18:33;;;;;;;14.10;7.60;;;;;;;-5.07;73.14;99811.50;4882513;29;20039;-73
2021/12/08 12:21:11;;;;;;;15.68;7.60;;;;;;;-5.06;73.69;99809.75;4849956;29;20083;-73
2021/12/08 12:23:44;;;;;;;13.00;7.93;;;;;;;-5.07;73.59;99808.88;4862032;29;20477;-73
2021/12/08 12:26:39;;;;;;;16.17;8.07;;;;;;;-5.10;73.32;99818.47;4860906;29;20053;-73
2021/12/08 12:29:07;;;;;;;14.98;8.18;;;;;;;-5.14;73.50;99823.66;4861916;29;20076;-73
2021/12/08 12:31:38;;;;;;;16.25;7.65;;;;;;;-5.08;73.64;99829.72;4861730;29;20139;-73
2021/12/08 12:34:19;;;;;;;15.50;7.88;;;;;;;-5.06;73.52;99834.00;4861986;29;20052;-72
2021/12/08 12:36:44;;;;;;;13.43;6.90;;;;;;;-5.10;72.99;99828.84;4862276;29;20048;-72
2021/12/08 12:39:13;;;;;;;14.07;7.15;;;;;;;-5.08;73.26;99835.78;4878754;29;20036;-73
2021/12/08 12:41:38;;;;;;;14.05;8.02;;;;;;;-5.14;72.94;99835.78;4854344;29;20047;-73
2021/12/08 12:44:29;;;;;;;14.60;6.60;;;;;;;-5.16;73.37;99825.41;4870693;29;20503;-75
2021/12/08 12:47:03;;;;;;;18.30;8.50;;;;;;;-5.19;73.18;99837.56;4851409;29;20462;-74
2021/12/08 12:49:28;;;;;;;15.95;7.45;;;;;;;-5.25;73.12;99843.66;4870142;29;20405;-73
2021/12/08 12:52:07;;;;;;;15.73;8.15;;;;;;;-5.26;73.11;99831.53;4868845;29;20115;-73
2021/12/08 12:54:32;;;;;;;15.88;7.28;;;;;;;-5.30;73.35;99834.13;4871961;29;20048;-73
2021/12/08 12:56:59;;;;;;;13.00;7.13;;;;;;;-5.32;72.45;99834.16;4869706;29;20056;-73
2021/12/08 12:59:36;;;;;;;14.07;8.73;;;;;;;-5.29;72.90;99844.53;4870935;29;20574;-72
2021/12/08 13:02:33;;;;;;;11.18;7.35;;;;;;;-5.26;73.48;99851.44;4871000;29;20471;-76
2021/12/08 13:05:12;;;;;;;11.55;7.03;;;;;;;-5.36;73.57;99850.63;4873737;29;20054;-73
2021/12/08 13:07:54;;;;;;;12.18;7.47;;;;;;;-5.43;73.19;99848.94;4870249;29;20048;-73
2021/12/08 13:10:28;;;;;;;13.60;6.85;;;;;;;-5.46;73.15;99837.69;4866852;29;20072;-73
2021/12/08 13:12:53;;;;;;;17.90;7.72;;;;;;;-5.46;73.38;99842.88;4869572;29;20147;-74
2021/12/08 13:15:21;;;;;;;17.55;7.90;;;;;;;-5.51;73.22;99851.53;4872724;29;20100;-68
2021/12/08 13:18:11;;;;;;;12.45;7.22;;;;;;;-5.51;73.61;99846.34;4870718;29;20046;-71
2021/12/08 13:20:41;;;;;;;17.23;8.35;;;;;;;-5.58;73.14;99846.38;4868714;29;20060;-68
2021/12/08 13:23:08;;;;;;;13.88;7.57;;;;;;;-5.63;73.25;99851.59;4870044;29;20036;-69
2021/12/08 13:25:41;;;;;;;14.35;8.70;;;;;;;-5.64;72.70;99846.38;4869607;29;20103;-73
2021/12/08 13:28:32;;;;;;;15.95;8.27;;;;;;;-5.63;73.05;99846.38;4866441;29;20036;-70
2021/12/08 13:31:03;;;;;;;11.73;6.57;;;;;;;-5.67;73.03;99855.09;4870651;29;20124;-75
2021/12/08 13:33:31;;;;;;;14.02;7.47;;;;;;;-5.68;73.07;99861.13;4868396;29;20048;-76
2021/12/08 13:35:59;;;;;;;14.05;7.10;;;;;;;-5.71;73.27;99862.88;4873200;29;20427;-73
2021/12/08 13:38:24;;;;;;;13.18;6.05;;;;;;;-5.73;73.09;99862.00;4870476;29;20048;-71
2021/12/08 13:40:53;;;;;;;11.98;6.57;;;;;;;-5.81;73.13;99861.16;4857739;29;20110;-67
2021/12/08 13:43:51;;;;;;;15.30;7.63;;;;;;;-5.77;73.21;99862.91;4873674;29;20044;-68
2021/12/08 13:46:38;;;;;;;14.82;8.00;;;;;;;-5.83;73.01;99862.91;4815821;29;20050;-70
2021/12/08 13:49:31;;;;;;;12.25;6.82;;;;;;;-5.91;73.00;99865.56;4809940;29;20050;-69
2021/12/08 13:52:16;;;;;;;13.73;7.07;;;;;;;-5.96;73.14;99869.88;4782474;29;20045;-68
2021/12/08 13:54:51;;;;;;;13.77;6.47;;;;;;;-5.99;73.30;99872.50;4812033;29;20042;-68
2021/12/08 13:57:35;;;;;;;15.15;7.43;;;;;;;-5.99;72.76;99869.91;4812432;29;20046;-68
2021/12/08 14:00:30;;;;;;;12.38;7.18;;;;;;;-5.94;73.55;99870.75;4811671;29;20172;-67
2021/12/08 14:02:58;;;;;;;14.25;6.93;;;;;;;-5.95;73.47;99869.00;4813180;29;20169;-67
2021/12/08 14:05:35;;;;;;;13.43;6.75;;;;;;;-5.98;73.35;99874.22;4812620;29;20057;-67
2021/12/08 14:08:05;;;;;;;12.88;7.10;;;;;;;-6.07;73.31;99863.84;4797383;29;20045;-67
2021/12/08 14:10:37;;;;;;;14.77;7.90;;;;;;;-6.10;73.04;99869.06;4813848;29;20045;-66
2021/12/08 14:13:26;;;;;;;12.85;6.72;;;;;;;-6.16;73.54;99858.66;4803847;29;20057;-67
2021/12/08 14:16:12;;;;;;;14.90;7.13;;;;;;;-6.19;73.75;99864.72;4803494;29;20097;-66
2021/12/08 14:18:45;;;;;;;13.18;7.43;;;;;;;-6.21;73.58;99866.47;4803536;29;20189;-66
2021/12/08 14:21:20;;;;;;;13.88;8.43;;;;;;;-6.21;73.19;99878.56;4829435;29;20455;-68
2021/12/08 14:23:47;;;;;;;15.27;7.70;;;;;;;-6.22;73.58;99877.72;4894805;29;20043;-70
2021/12/08 14:26:36;;;;;;;15.52;6.88;;;;;;;-6.21;73.56;99882.03;4897878;29;20048;-72
2021/12/08 14:29:03;;;;;;;11.05;6.53;;;;;;;-6.24;73.50;99882.88;4892280;29;20131;-71
2021/12/08 14:31:34;;;;;;;11.93;6.55;;;;;;;-6.24;73.46;99880.28;4888359;29;20056;-68
2021/12/08 14:34:18;;;;;;;10.55;6.38;;;;;;;-6.19;73.54;99871.63;4867166;29;20051;-70
2021/12/08 14:37:14;;;;;;;13.82;6.35;;;;;;;-6.16;73.68;99874.22;4885823;29;20052;-72
2021/12/08 14:39:45;;;;;;;12.88;7.18;;;;;;;-6.22;73.53;99882.91;4885873;29;20048;-68
2021/12/08 14:42:09;;;;;;;12.18;7.05;;;;;;;-6.29;73.58;99875.97;4885497;29;20044;-69
2021/12/08 14:44:37;;;;;;;13.55;6.32;;;;;;;-6.30;73.31;99882.00;4887396;29;20043;-71
2021/12/08 14:47:07;;;;;;;13.80;7.18;;;;;;;-6.26;73.53;99874.25;4888894;29;20051;-69
2021/12/08 14:49:34;;;;;;;13.93;7.40;;;;;;;-6.27;73.75;99879.41;4885693;29;20063;-70
2021/12/08 14:52:04;;;;;;;20.70;7.82;;;;;;;-6.24;73.27;99871.66;4889092;29;20048;-70
2021/12/08 14:54:33;;;;;;;13.05;7.07;;;;;;;-6.29;73.60;99879.41;4883917;29;20032;-73
2021/12/08 14:57:16;;;;;;;12.38;7.15;;;;;;;-6.30;73.51;99866.44;4890874;29;20050;-71
2021/12/08 15:00:13;;;;;;;12.98;7.30;;;;;;;-6.35;73.32;99881.16;4897748;29;20059;-71
2021/12/08 15:02:46;;;;;;;13.00;6.68;;;;;;;-6.39;73.54;99877.69;4877087;29;20052;-73
2021/12/08 15:05:19;;;;;;;15.50;8.45;;;;;;;-6.43;73.39;99875.94;4874476;29;20040;-72
2021/12/08 15:07:44;;;;;;;17.48;7.93;;;;;;;-6.48;73.73;99867.31;4855833;29;20056;-70
2021/12/08 15:10:16;;;;;;;14.80;6.65;;;;;;;-6.52;73.42;99882.88;4871457;29;20094;-72
2021/12/08 15:12:44;;;;;;;14.30;7.88;;;;;;;-6.62;73.13;99885.44;4854350;29;20428;-72
2021/12/08 15:15:24;;;;;;;12.63;7.20;;;;;;;-6.65;73.35;99875.06;4853019;29;20036;-71
2021/12/08 15:17:58;;;;;;;12.52;7.47;;;;;;;-6.65;73.81;99881.97;4868633;29;20048;-70
2021/12/08 15:20:37;;;;;;;14.57;7.50;;;;;;;-6.65;73.36;99893.22;4852856;29;20062;-71
2021/12/08 15:23:10;;;;;;;12.55;6.93;;;;;;;-6.68;73.51;99895.84;4869849;29;20052;-72
2021/12/08 15:25:36;;;;;;;14.95;6.90;;;;;;;-6.67;73.64;99902.75;4867863;29;20116;-71
2021/12/08 15:28:07;;;;;;;13.60;6.82;;;;;;;-6.65;73.37;99905.31;4869104;29;20075;-72
2021/12/08 15:30:37;;;;;;;12.65;6.43;;;;;;;-6.68;73.75;99898.41;4864175;29;20048;-69
2021/12/08 15:33:10;;;;;;;11.10;7.00;;;;;;;-6.68;73.64;99900.16;4853451;29;20256;-74
2021/12/08 15:35:39;;;;;;;9.82;6.25;;;;;;;-6.68;73.75;99905.34;4869533;29;20044;-74
2021/12/08 15:38:04;;;;;;;11.82;7.40;;;;;;;-6.69;73.66;99894.09;4854543;29;20049;-72
2021/12/08 15:40:58;;;;;;;12.63;7.05;;;;;;;-6.72;72.97;99896.69;4889736;29;20043;-71
2021/12/08 15:43:24;;;;;;;12.52;7.28;;;;;;;-6.72;73.01;99903.59;4894046;29;20135;-71
2021/12/08 15:45:55;;;;;;;14.00;7.90;;;;;;;-6.71;73.24;99895.81;4888955;29;20070;-73
2021/12/08 15:48:26;;;;;;;13.32;7.15;;;;;;;-6.72;73.13;99886.31;4887530;29;20048;-73
2021/12/08 15:50:57;;;;;;;12.80;6.55;;;;;;;-6.74;73.55;99881.97;4888256;29;20119;-72
2021/12/08 15:53:26;;;;;;;9.40;6.28;;;;;;;-6.77;73.33;99887.19;4888442;29;20039;-74
2021/12/08 15:55:55;;;;;;;13.82;7.50;;;;;;;-6.78;73.05;99888.91;4887197;29;20127;-69
2021/12/08 15:58:21;;;;;;;8.77;5.43;;;;;;;-6.76;72.62;99900.13;4890116;29;20050;-66
2021/12/08 16:00:55;;;;;;;11.35;6.40;;;;;;;-6.73;72.75;99891.47;4887280;29;20060;-68
2021/12/08 16:03:38;;;;;;;12.52;6.68;;;;;;;-6.67;73.66;99901.88;4889750;29;20040;-68
2021/12/08 16:06:24;;;;;;;11.27;7.00;;;;;;;-6.69;73.23;99903.59;4889729;29;20666;-80
2021/12/08 16:08:54;;;;;;;15.38;8.75;;;;;;;-6.77;73.15;99900.13;4887302;29;20050;-74
2021/12/08 16:11:34;;;;;;;14.55;7.53;;;;;;;-6.75;73.25;99909.63;4889652;29;20040;-65
2021/12/08 16:14:27;;;;;;;11.68;6.13;;;;;;;-6.71;73.51;99897.53;4890013;29;20051;-66
2021/12/08 16:17:01;;;;;;;14.10;7.35;;;;;;;-6.76;73.31;99902.69;4889845;29;20126;-68
2021/12/08 16:19:35;;;;;;;11.93;6.90;;;;;;;-6.81;73.05;99904.44;4887872;29;20052;-70
2021/12/08 16:22:01;;;;;;;11.65;5.82;;;;;;;-6.84;73.11;99899.25;4905674;29;20477;-66
2021/12/08 16:24:26;;;;;;;8.60;6.05;;;;;;;-6.84;73.25;99886.28;4901792;29;20127;-66
2021/12/08 16:27:03;;;;;;;13.60;7.00;;;;;;;-6.81;73.17;99882.84;4885201;29;20146;-69
2021/12/08 16:29:30;;;;;;;13.07;6.78;;;;;;;-6.88;72.70;99894.06;4884919;29;20511;-70
2021/12/08 16:31:58;;;;;;;12.07;7.60;;;;;;;-6.85;73.07;99888.88;4901883;29;20111;-70
2021/12/08 16:34:24;;;;;;;14.60;7.75;;;;;;;-6.87;72.74;99883.66;4885348;29;20043;-71
2021/12/08 16:36:51;;;;;;;14.98;7.47;;;;;;;-6.87;73.03;99895.75;4885892;29;20054;-69
2021/12/08 16:39:24;;;;;;;12.35;7.30;;;;;;;-6.86;73.58;99900.97;4885717;29;20106;-70
2021/12/08 16:44:33;;;;;;;15.60;7.25;;;;;;;-6.88;72.89;99902.66;4901918;29;20098;-69
2021/12/08 16:46:58;;;;;;;11.75;6.85;;;;;;;-6.87;72.94;99898.34;4901837;29;20518;-67
2021/12/08 16:49:24;;;;;;;12.32;7.13;;;;;;;-6.85;73.19;99896.63;4902078;29;20549;-69
2021/12/08 16:51:50;;;;;;;12.00;7.43;;;;;;;-6.87;73.12;99900.94;4903513;29;20067;-67
2021/12/08 16:54:15;;;;;;;11.05;6.15;;;;;;;-6.87;73.32;99898.34;4903758;29;20051;-66
2021/12/08 16:56:40;;;;;;;13.90;7.70;;;;;;;-6.87;73.55;99890.59;4901956;29;20054;-67
2021/12/08 16:59:05;;;;;;;14.43;7.28;;;;;;;-6.88;73.20;99894.91;4884500;29;20502;-68
2021/12/08 17:01:30;;;;;;;14.35;8.00;;;;;;;-6.91;73.05;99907.88;4900444;29;20043;-69
2021/12/08 17:03:55;;;;;;;13.90;7.53;;;;;;;-6.90;72.62;99908.75;4899931;29;20058;-69
2021/12/08 17:06:20;;;;;;;14.75;7.22;;;;;;;-6.89;72.73;99892.34;4899893;29;20103;-68
2021/12/08 17:08:46;;;;;;;13.88;7.50;;;;;;;-6.86;73.17;99902.69;4899851;29;20494;-71
2021/12/08 17:11:10;;;;;;;16.73;8.38;;;;;;;-6.86;72.65;99895.78;4899635;29;20573;-71
2021/12/08 17:13:37;;;;;;;13.88;7.05;;;;;;;-6.85;73.10;99896.63;4883337;29;20047;-70
2021/12/08 17:16:03;;;;;;;11.65;5.30;;;;;;;-6.80;73.12;99898.41;4899541;29;20043;-70
2021/12/08 17:18:30;;;;;;;14.77;8.45;;;;;;;-6.82;72.81;99896.66;4898934;29;20510;-71
2021/12/08 17:20:56;;;;;;;13.50;7.10;;;;;;;-6.80;73.29;99894.94;4899772;29;20534;-69
2021/12/08 17:23:23;;;;;;;14.07;7.57;;;;;;;-6.82;72.51;99897.53;4900215;29;20047;-68
2021/12/08 17:25:49;;;;;;;12.55;6.78;;;;;;;-6.80;73.54;99895.81;4907785;29;20714;-68
2021/12/08 17:28:18;;;;;;;9.32;6.25;;;;;;;-6.78;73.46;99891.50;4907702;29;20981;-70
2021/12/08 17:30:43;;;;;;;16.17;7.88;;;;;;;-6.81;73.27;99894.06;4909174;29;20039;-68
2021/12/08 17:33:09;;;;;;;15.77;7.45;;;;;;;-6.83;72.99;99892.31;4908793;29;20074;-69
2021/12/08 17:35:36;;;;;;;10.32;6.32;;;;;;;-6.86;72.79;99887.13;4892705;29;20054;-69
2021/12/08 17:38:01;;;;;;;13.38;7.13;;;;;;;-6.85;73.05;99886.28;4902751;29;20058;-70
2021/12/08 17:40:27;;;;;;;16.73;6.65;;;;;;;-6.85;73.31;99886.28;4895561;29;20039;-67
2021/12/08 17:42:53;;;;;;;15.18;6.95;;;;;;;-6.85;73.27;99894.03;4921850;29;20043;-67
2021/12/08 17:45:24;;;;;;;15.35;7.07;;;;;;;-6.79;73.64;99891.47;4921887;29;20578;-67
2021/12/08 17:47:50;;;;;;;15.95;7.50;;;;;;;-6.80;73.60;99900.13;4921079;29;20041;-68
2021/12/08 17:50:15;;;;;;;19.35;7.53;;;;;;;-6.76;73.33;99901.84;4919598;29;20051;-69
2021/12/08 17:52:42;;;;;;;10.52;6.30;;;;;;;-6.76;72.97;99907.03;4919173;29;20054;-67
2021/12/08 17:55:09;;;;;;;11.88;6.93;;;;;;;-6.75;72.96;99908.75;4921342;29;20055;-66
2021/12/08 17:57:34;;;;;;;13.90;8.18;;;;;;;-6.76;73.07;99907.03;4903019;29;20561;-71
2021/12/08 18:00:00;;;;;;;14.93;7.63;;;;;;;-6.77;73.08;99900.97;4918727;29;20493;-70
2021/12/08 18:02:36;;;;;;;16.33;7.18;;;;;;;-6.77;73.08;99900.97;4919252;29;20042;-69
2021/12/08 18:05:03;;;;;;;11.52;6.55;;;;;;;-6.75;72.84;99891.47;4918750;29;20047;-69
2021/12/08 18:07:29;;;;;;;10.13;6.78;;;;;;;-6.72;72.89;99890.63;4919377;29;20561;-71
2021/12/08 18:09:54;;;;;;;13.45;6.82;;;;;;;-6.74;72.87;99879.38;4918686;29;20562;-73
2021/12/08 18:12:19;;;;;;;13.27;7.63;;;;;;;-6.73;72.77;99886.28;4910491;29;20044;-71
2021/12/08 18:14:45;;;;;;;15.48;7.85;;;;;;;-6.70;73.49;99891.50;4892206;29;20035;-72
2021/12/08 18:17:12;;;;;;;11.30;5.93;;;;;;;-6.70;72.86;99896.69;4908736;29;20486;-72
2021/12/08 18:19:37;;;;;;;13.73;6.75;;;;;;;-6.74;73.46;99889.75;4907407;29;20629;-76
2021/12/08 18:22:03;;;;;;;14.77;7.28;;;;;;;-6.74;73.43;99889.75;4914830;29;20038;-73
2021/12/08 18:24:30;;;;;;;13.85;6.65;;;;;;;-6.73;73.19;99907.03;4914091;29;20047;-73
2021/12/08 18:26:55;;;;;;;17.75;8.43;;;;;;;-6.75;72.85;99908.75;4905612;29;20043;-74
2021/12/08 18:29:21;;;;;;;13.10;7.88;;;;;;;-6.78;73.34;99899.28;4894027;29;20059;-71
2021/12/08 18:31:46;;;;;;;15.02;8.23;;;;;;;-6.74;73.14;99900.13;4897984;29;20108;-71
2021/12/08 18:34:15;;;;;;;19.20;8.63;;;;;;;-6.74;73.43;99902.72;4916442;29;20454;-70
2021/12/08 18:36:42;;;;;;;10.57;6.03;;;;;;;-6.71;73.04;99897.53;4916799;29;20050;-71
2021/12/08 18:39:11;;;;;;;15.98;7.82;;;;;;;-6.70;73.59;99888.91;4852652;28;20051;-68
2021/12/08 18:41:36;;;;;;;16.30;7.78;;;;;;;-6.71;72.66;99889.75;4881781;29;20095;-72
2021/12/08 18:44:01;;;;;;;13.65;6.78;;;;;;;-6.69;72.88;99903.59;4878682;29;20115;-72
2021/12/08 18:46:27;;;;;;;14.23;7.15;;;;;;;-6.67;72.67;99907.06;4859802;29;20511;-69
2021/12/08 18:48:55;;;;;;;12.68;6.43;;;;;;;-6.65;72.93;99902.72;4880537;29;20048;-70
2021/12/08 18:51:23;;;;;;;10.65;7.13;;;;;;;-6.64;72.95;99896.69;4862290;29;20044;-70
2021/12/08 18:53:51;;;;;;;14.80;7.55;;;;;;;-6.66;72.84;99898.44;4881960;29;20066;-68
2021/12/08 18:56:16;;;;;;;15.27;6.45;;;;;;;-6.68;72.77;99902.75;4888538;29;20048;-70
2021/12/08 18:58:42;;;;;;;11.85;6.80;;;;;;;-6.69;72.64;99898.41;4889819;29;20131;-72
2021/12/08 19:01:10;;;;;;;15.82;7.07;;;;;;;-6.67;72.60;99901.88;4886083;29;20502;-73
2021/12/08 19:03:36;;;;;;;13.48;7.13;;;;;;;-6.68;72.50;99900.16;4871631;29;20020;-68
2021/12/08 19:06:02;;;;;;;16.25;7.43;;;;;;;-6.69;73.04;99909.66;4889866;29;20052;-71
2021/12/08 19:08:28;;;;;;;13.73;7.15;;;;;;;-6.67;72.69;99907.06;4866137;29;20528;-70
2021/12/08 19:10:55;;;;;;;10.50;5.53;;;;;;;-6.68;72.85;99903.59;4852984;29;20057;-72
2021/12/08 19:13:24;;;;;;;10.73;6.40;;;;;;;-6.67;72.38;99907.06;4848784;29;20049;-68
2021/12/08 19:15:49;;;;;;;12.77;6.38;;;;;;;-6.68;72.48;99905.34;4865121;29;20057;-71
2021/12/08 19:18:15;;;;;;;10.65;6.18;;;;;;;-6.65;72.52;99897.53;4864913;29;20055;-75
2021/12/08 19:20:40;;;;;;;14.77;7.30;;;;;;;-6.69;73.01;99903.59;4865020;29;20052;-70
2021/12/08 19:23:09;;;;;;;9.70;5.22;;;;;;;-6.66;72.31;99903.63;4878269;29;20044;-72
2021/12/08 19:25:36;;;;;;;12.57;7.03;;;;;;;-6.67;72.43;99896.69;4861876;29;20413;-68